createdAt,value
2023-06-12T00:00:15.983Z,101183.83
2023-06-12T00:02:49.569Z,101179.02
2023-06-12T00:04:45.945Z,101178.48
2023-06-12T00:06:39.442Z,101178.83
2023-06-12T00:08:36.176Z,101179.50
2023-06-12T00:10:29.227Z,101177.73
2023-06-12T00:12:23.105Z,101178.55
2023-06-12T00:14:16.262Z,101178.93
2023-06-12T00:16:10.473Z,101177.95
2023-06-12T00:18:04.217Z,101178.83
2023-06-12T00:19:57.255Z,101175.91
2023-06-12T00:21:50.400Z,101177.93
2023-06-12T00:23:43.676Z,101179.67
2023-06-12T00:25:36.909Z,101179.33
2023-06-12T00:27:29.979Z,101183.16
2023-06-12T00:29:23.420Z,101180.16
2023-06-12T00:31:16.504Z,101185.18
2023-06-12T00:33:09.622Z,101181.25
2023-06-12T00:35:02.882Z,101184.36
2023-06-12T00:36:56.338Z,101185.85
2023-06-12T00:38:49.590Z,101189.38
2023-06-12T00:40:42.950Z,101188.53
2023-06-12T00:42:43.890Z,101188.08
2023-06-12T00:44:37.347Z,101189.33
2023-06-12T00:46:30.648Z,101191.89
2023-06-12T00:48:23.757Z,101193.40
2023-06-12T00:50:18.984Z,101188.02
2023-06-12T00:52:13.338Z,101192.78
2023-06-12T00:54:06.490Z,101197.73
2023-06-12T00:55:59.548Z,101195.73
2023-06-12T00:57:53.720Z,101192.31
2023-06-12T00:59:46.770Z,101192.67
2023-06-12T01:01:39.811Z,101196.72
2023-06-12T01:03:33.494Z,101192.46
2023-06-12T01:05:34.710Z,101191.09
2023-06-12T01:07:34.844Z,101193.80
2023-06-12T01:09:27.895Z,101194.27
2023-06-12T01:11:21.865Z,101194.02
2023-06-12T01:13:17.828Z,101196.56
2023-06-12T01:15:11.763Z,101196.69
2023-06-12T01:17:05.641Z,101196.44
2023-06-12T01:18:58.902Z,101196.83
2023-06-12T01:20:54.700Z,101195.02
2023-06-12T01:23:05.060Z,101193.31
2023-06-12T01:25:25.037Z,101192.58
2023-06-12T01:27:37.043Z,101191.64
2023-06-12T01:29:49.232Z,101190.36
2023-06-12T01:31:58.041Z,101187.84
2023-06-12T01:33:58.063Z,101192.10
2023-06-12T01:35:52.955Z,101193.39
2023-06-12T01:37:47.439Z,101196.30
2023-06-12T01:39:59.252Z,101197.29
2023-06-12T01:41:53.616Z,101197.06
2023-06-12T01:43:46.765Z,101201.73
2023-06-12T01:45:41.972Z,101202.17
2023-06-12T01:47:35.138Z,101204.30
2023-06-12T01:49:28.269Z,101202.44
2023-06-12T01:51:21.229Z,101205.65
2023-06-12T01:53:16.920Z,101204.60
2023-06-12T01:55:11.236Z,101208.88
2023-06-12T01:57:05.185Z,101206.11
2023-06-12T01:59:00.291Z,101206.27
2023-06-12T02:01:03.079Z,101204.54
2023-06-12T02:02:57.777Z,101201.42
2023-06-12T02:04:55.538Z,101203.44
2023-06-12T02:06:50.405Z,101200.48
2023-06-12T02:08:44.250Z,101205.05
2023-06-12T02:10:39.596Z,101202.96
2023-06-12T02:12:33.552Z,101204.20
2023-06-12T02:14:27.113Z,101203.28
2023-06-12T02:16:22.836Z,101204.79
2023-06-12T02:18:17.678Z,101203.67
2023-06-12T02:20:12.224Z,101202.71
2023-06-12T02:22:06.689Z,101201.02
2023-06-12T02:24:00.223Z,101199.11
2023-06-12T02:25:54.123Z,101198.74
2023-06-12T02:27:47.283Z,101201.00
2023-06-12T02:29:40.635Z,101196.80
2023-06-12T02:31:33.940Z,101198.56
2023-06-12T02:33:28.880Z,101199.77
2023-06-12T02:35:22.449Z,101199.92
2023-06-12T02:37:16.065Z,101201.68
2023-06-12T02:39:14.397Z,101205.14
2023-06-12T02:41:11.944Z,101204.75
2023-06-12T02:43:05.403Z,101205.83
2023-06-12T02:44:58.550Z,101208.08
2023-06-12T02:46:56.114Z,101211.92
2023-06-12T02:49:07.389Z,101209.80
2023-06-12T02:51:00.859Z,101210.78
2023-06-12T02:52:54.001Z,101209.09
2023-06-12T02:54:47.470Z,101209.20
2023-06-12T02:56:43.386Z,101210.20
2023-06-12T02:58:36.642Z,101211.80
2023-06-12T03:00:30.141Z,101214.91
2023-06-12T03:02:23.623Z,101214.20
2023-06-12T03:04:21.694Z,101216.33
2023-06-12T03:06:15.492Z,101217.81
2023-06-12T03:08:10.014Z,101220.94
2023-06-12T03:10:03.139Z,101216.34
2023-06-12T03:11:56.284Z,101219.59
2023-06-12T03:13:49.643Z,101223.24
2023-06-12T03:15:42.963Z,101226.21
2023-06-12T03:17:36.171Z,101224.98
2023-06-12T03:19:29.613Z,101227.23
2023-06-12T03:21:22.868Z,101231.05
2023-06-12T03:23:16.840Z,101230.67
2023-06-12T03:25:11.894Z,101233.93
2023-06-12T03:27:05.293Z,101236.44
2023-06-12T03:28:59.272Z,101232.38
2023-06-12T03:30:52.766Z,101232.89
2023-06-12T03:32:47.319Z,101232.85
2023-06-12T03:34:40.876Z,101230.50
2023-06-12T03:36:35.447Z,101230.38
2023-06-12T03:38:29.024Z,101227.65
2023-06-12T03:40:22.182Z,101227.22
2023-06-12T03:42:16.581Z,101230.45
2023-06-12T03:44:16.576Z,101232.23
2023-06-12T03:46:10.033Z,101230.66
2023-06-12T03:48:03.149Z,101231.81
2023-06-12T03:49:56.853Z,101230.92
2023-06-12T03:51:51.074Z,101235.05
2023-06-12T03:53:44.488Z,101232.77
2023-06-12T03:55:37.962Z,101232.96
2023-06-12T03:57:31.214Z,101231.29
2023-06-12T03:59:24.256Z,101229.35
2023-06-12T04:01:17.613Z,101225.92
2023-06-12T04:03:11.019Z,101224.67
2023-06-12T04:05:04.639Z,101222.48
2023-06-12T04:06:58.604Z,101225.63
2023-06-12T04:08:52.995Z,101221.66
2023-06-12T04:10:46.456Z,101222.36
2023-06-12T04:13:15.981Z,101223.40
2023-06-12T04:18:42.654Z,101222.74
2023-06-12T04:20:40.209Z,101228.69
2023-06-12T04:22:43.705Z,101229.86
2023-06-12T04:27:12.794Z,101231.52
2023-06-12T04:38:46.036Z,101239.93
2023-06-12T04:40:55.347Z,101241.51
2023-06-12T04:43:23.238Z,101240.67
2023-06-12T04:46:01.804Z,101238.15
2023-06-12T04:52:26.629Z,101251.13
2023-06-12T04:55:24.020Z,101251.42
2023-06-12T05:02:07.097Z,101256.86
2023-06-12T05:05:48.456Z,101253.23
2023-06-12T05:08:21.407Z,101249.33
2023-06-12T05:11:05.711Z,101253.04
2023-06-12T05:15:48.647Z,101260.07
2023-06-12T05:17:42.355Z,101257.25
2023-06-12T05:19:36.696Z,101258.92
2023-06-12T05:21:29.849Z,101260.25
2023-06-12T05:23:23.304Z,101259.63
2023-06-12T05:25:17.306Z,101257.30
2023-06-12T05:27:11.865Z,101263.52
2023-06-12T05:29:05.221Z,101260.66
2023-06-12T05:30:58.399Z,101262.79
2023-06-12T05:32:51.627Z,101266.19
2023-06-12T05:34:44.779Z,101265.77
2023-06-12T05:36:38.445Z,101262.70
2023-06-12T05:38:32.311Z,101263.98
2023-06-12T05:40:27.821Z,101264.75
2023-06-12T05:42:20.974Z,101265.27
2023-06-12T05:44:14.229Z,101268.30
2023-06-12T05:46:07.496Z,101268.85
2023-06-12T05:48:02.086Z,101272.58
2023-06-12T05:49:56.127Z,101271.27
2023-06-12T05:51:49.835Z,101270.73
2023-06-12T05:53:46.795Z,101272.37
2023-06-12T05:55:41.037Z,101277.85
2023-06-12T05:57:34.494Z,101280.02
2023-06-12T05:59:28.464Z,101280.73
2023-06-12T06:01:26.442Z,101278.34
2023-06-12T06:03:26.680Z,101274.13
2023-06-12T06:05:20.653Z,101274.23
2023-06-12T06:07:18.592Z,101276.66
2023-06-12T06:09:15.328Z,101277.82
2023-06-12T06:11:11.127Z,101278.91
2023-06-12T06:13:06.236Z,101280.58
2023-06-12T06:15:00.232Z,101282.55
2023-06-12T06:16:55.233Z,101282.18
2023-06-12T06:18:54.200Z,101277.61
2023-06-12T06:20:47.658Z,101277.84
2023-06-12T06:22:43.065Z,101277.16
2023-06-12T06:24:36.651Z,101275.80
2023-06-12T06:26:31.043Z,101278.38
2023-06-12T06:28:53.245Z,101281.34
2023-06-12T06:30:57.384Z,101284.02
2023-06-12T06:32:51.562Z,101280.81
2023-06-12T06:34:44.889Z,101283.04
2023-06-12T06:36:38.352Z,101286.00
2023-06-12T06:38:31.518Z,101287.84
2023-06-12T06:40:26.028Z,101290.99
2023-06-12T06:42:19.368Z,101286.39
2023-06-12T06:44:17.441Z,101281.33
2023-06-12T06:46:13.656Z,101282.73
2023-06-12T06:48:09.044Z,101281.22
2023-06-12T06:50:03.431Z,101279.59
2023-06-12T06:51:57.904Z,101275.84
2023-06-12T06:53:51.469Z,101276.73
2023-06-12T06:55:47.386Z,101279.90
2023-06-12T06:57:44.237Z,101277.02
2023-06-12T06:59:38.206Z,101276.48
2023-06-12T07:01:34.806Z,101274.48
2023-06-12T07:03:29.233Z,101273.73
2023-06-12T07:05:23.240Z,101274.33
2023-06-12T07:07:16.670Z,101270.26
2023-06-12T07:09:10.034Z,101272.45
2023-06-12T07:11:03.485Z,101276.59
2023-06-12T07:12:59.921Z,101273.83
2023-06-12T07:15:05.100Z,101273.74
2023-06-12T07:16:58.635Z,101275.53
2023-06-12T07:18:52.179Z,101276.25
2023-06-12T07:20:45.655Z,101273.02
2023-06-12T07:22:38.989Z,101273.55
2023-06-12T07:24:32.968Z,101273.47
2023-06-12T07:26:29.343Z,101272.32
2023-06-12T07:28:25.469Z,101273.92
2023-06-12T07:30:20.950Z,101276.31
2023-06-12T07:32:20.650Z,101275.54
2023-06-12T07:34:14.087Z,101276.63
2023-06-12T07:36:08.371Z,101274.27
2023-06-12T07:38:02.455Z,101272.63
2023-06-12T07:40:08.159Z,101267.02
2023-06-12T07:42:03.089Z,101263.38
2023-06-12T07:43:57.512Z,101263.58
2023-06-12T07:45:50.841Z,101257.77
2023-06-12T07:47:44.364Z,101254.71
2023-06-12T07:49:38.252Z,101256.23
2023-06-12T07:51:32.941Z,101256.30
2023-06-12T07:53:37.700Z,101252.77
2023-06-12T07:55:34.689Z,101252.05
2023-06-12T07:57:29.441Z,101255.42
2023-06-12T07:59:25.109Z,101264.14
2023-06-12T08:01:23.840Z,101256.80
2023-06-12T08:03:29.616Z,101263.06
2023-06-12T08:05:24.626Z,101256.23
2023-06-12T08:07:19.112Z,101259.57
2023-06-12T08:09:12.317Z,101263.81
2023-06-12T08:11:05.760Z,101263.52
2023-06-12T08:12:58.879Z,101264.30
2023-06-12T08:14:53.191Z,101260.98
2023-06-12T08:16:47.776Z,101264.99
2023-06-12T08:18:42.049Z,101262.66
2023-06-12T08:20:35.800Z,101258.42
2023-06-12T08:22:30.889Z,101256.14
2023-06-12T08:24:24.372Z,101254.03
2023-06-12T08:26:17.408Z,101257.56
2023-06-12T08:28:10.764Z,101251.75
2023-06-12T08:30:04.636Z,101249.97
2023-06-12T08:31:58.093Z,101249.95
2023-06-12T08:33:51.244Z,101248.90
2023-06-12T08:35:44.700Z,101247.13
2023-06-12T08:37:38.272Z,101242.86
2023-06-12T08:39:31.416Z,101238.94
2023-06-12T08:41:26.412Z,101233.30
2023-06-12T08:43:19.566Z,101230.88
2023-06-12T08:45:21.564Z,101229.98
2023-06-12T08:47:17.650Z,101224.98
2023-06-12T08:49:11.005Z,101226.35
2023-06-12T08:51:05.389Z,101227.94
2023-06-12T08:52:59.561Z,101222.36
2023-06-12T08:54:53.176Z,101222.44
2023-06-12T08:56:47.819Z,101222.44
2023-06-12T08:58:41.069Z,101215.95
2023-06-12T09:00:36.087Z,101216.46
2023-06-12T09:02:29.728Z,101213.92
2023-06-12T09:04:56.345Z,101205.93
2023-06-12T09:06:51.771Z,101212.11
2023-06-12T09:08:44.721Z,101203.09
2023-06-12T09:10:40.143Z,101201.45
2023-06-12T09:12:33.219Z,101207.43
2023-06-12T09:14:26.330Z,101206.96
2023-06-12T09:16:23.188Z,101206.83
2023-06-12T09:18:16.709Z,101206.46
2023-06-12T09:20:22.364Z,101208.69
2023-06-12T09:22:25.666Z,101204.77
2023-06-12T09:24:19.268Z,101201.98
2023-06-12T09:26:17.178Z,101202.22
2023-06-12T09:28:11.886Z,101206.52
2023-06-12T09:30:08.624Z,101203.02
2023-06-12T09:32:05.597Z,101198.13
2023-06-12T09:33:58.917Z,101197.80
2023-06-12T09:35:52.794Z,101199.18
2023-06-12T09:40:09.324Z,101187.30
2023-06-12T09:42:03.716Z,101189.10
2023-06-12T09:44:06.160Z,101189.78
2023-06-12T09:46:02.195Z,101192.52
2023-06-12T09:47:56.932Z,101185.83
2023-06-12T09:50:02.314Z,101189.42
2023-06-12T09:51:56.601Z,101186.55
2023-06-12T09:53:52.720Z,101178.03
2023-06-12T09:55:47.158Z,101177.60
2023-06-12T09:57:41.632Z,101177.83
2023-06-12T09:59:36.767Z,101180.37
2023-06-12T10:01:33.785Z,101173.27
2023-06-12T10:03:27.732Z,101167.75
2023-06-12T10:05:25.343Z,101167.02
2023-06-12T10:07:23.935Z,101166.24
2023-06-12T10:09:18.220Z,101167.85
2023-06-12T10:11:13.355Z,101168.55
2023-06-12T10:13:07.294Z,101164.34
2023-06-12T10:15:02.071Z,101167.01
2023-06-12T10:16:59.222Z,101163.91
2023-06-12T10:18:52.272Z,101163.65
2023-06-12T10:20:45.939Z,101162.73
2023-06-12T10:22:39.659Z,101164.86
2023-06-12T10:24:34.088Z,101160.21
2023-06-12T10:26:28.148Z,101158.62
2023-06-12T10:28:23.563Z,101155.22
2023-06-12T10:30:19.074Z,101153.94
2023-06-12T10:32:16.079Z,101152.69
2023-06-12T10:34:13.582Z,101151.41
2023-06-12T10:36:13.389Z,101147.30
2023-06-12T10:38:06.572Z,101143.15
2023-06-12T10:40:09.021Z,101141.20
2023-06-12T10:42:08.114Z,101147.67
2023-06-12T10:44:03.505Z,101145.41
2023-06-12T10:46:00.190Z,101145.30
2023-06-12T10:48:05.964Z,101137.69
2023-06-12T10:50:06.810Z,101134.67
2023-06-12T10:52:00.904Z,101132.90
2023-06-12T10:53:55.498Z,101127.90
2023-06-12T10:55:50.904Z,101120.59
2023-06-12T10:57:54.217Z,101125.06
2023-06-12T10:59:47.372Z,101127.45
2023-06-12T11:01:41.118Z,101128.73
2023-06-12T11:03:35.961Z,101118.74
2023-06-12T11:05:30.425Z,101116.46
2023-06-12T11:07:24.897Z,101114.46
2023-06-12T11:09:17.945Z,101106.42
2023-06-12T11:11:11.775Z,101116.80
2023-06-12T11:13:05.247Z,101106.73
2023-06-12T11:15:00.700Z,101101.47
2023-06-12T11:16:58.245Z,101104.55
2023-06-12T11:19:04.677Z,101104.11
2023-06-12T11:20:57.923Z,101103.95
2023-06-12T11:22:59.171Z,101103.05
2023-06-12T11:25:00.272Z,101102.09
2023-06-12T11:26:54.885Z,101097.98
2023-06-12T11:28:48.042Z,101092.46
2023-06-12T11:30:53.415Z,101088.27
2023-06-12T11:32:54.978Z,101082.91
2023-06-12T11:34:48.088Z,101084.45
2023-06-12T11:36:41.447Z,101080.45
2023-06-12T11:40:30.520Z,101088.09
2023-06-12T11:42:23.705Z,101079.67
2023-06-12T11:44:17.950Z,101076.87
2023-06-12T11:46:11.745Z,101074.59
2023-06-12T11:50:04.110Z,101076.41
2023-06-12T11:51:58.133Z,101073.88
2023-06-12T11:53:51.490Z,101071.64
2023-06-12T11:57:51.527Z,101064.15
2023-06-12T11:59:46.822Z,101063.98
2023-06-12T12:01:40.707Z,101061.91
2023-06-12T12:03:36.462Z,101064.89
2023-06-12T12:05:39.500Z,101058.37
2023-06-12T12:07:32.651Z,101055.25
2023-06-12T12:09:28.978Z,101054.20
2023-06-12T12:11:23.431Z,101053.64
2023-06-12T12:13:17.224Z,101058.95
2023-06-12T12:15:11.736Z,101050.40
2023-06-12T12:17:06.320Z,101052.98
2023-06-12T12:18:59.449Z,101049.54
2023-06-12T12:20:53.418Z,101042.73
2023-06-12T12:22:47.814Z,101040.98
2023-06-12T12:24:41.161Z,101047.70
2023-06-12T12:26:34.761Z,101047.91
2023-06-12T12:28:28.081Z,101044.45
2023-06-12T12:30:22.767Z,101051.64
2023-06-12T12:32:16.642Z,101050.70
2023-06-12T12:34:10.364Z,101042.48
2023-06-12T12:36:04.388Z,101039.35
2023-06-12T12:37:57.739Z,101031.88
2023-06-12T12:39:50.896Z,101024.23
2023-06-12T12:41:44.063Z,101033.64
2023-06-12T12:43:37.104Z,101031.45
2023-06-12T12:45:30.264Z,101027.66
2023-06-12T12:47:23.586Z,101027.04
2023-06-12T12:49:16.857Z,101022.31
2023-06-12T12:51:11.236Z,101022.11
2023-06-12T12:53:04.702Z,101017.17
2023-06-12T12:54:57.783Z,101013.54
2023-06-12T12:56:51.022Z,101013.45
2023-06-12T12:58:44.160Z,101010.17
2023-06-12T13:00:39.637Z,101005.68
2023-06-12T13:02:33.025Z,101002.73
2023-06-12T13:04:26.586Z,101005.44
2023-06-12T13:06:21.849Z,101007.66
2023-06-12T13:08:17.097Z,101005.44
2023-06-12T13:10:16.068Z,101008.26
2023-06-12T13:12:13.771Z,101010.13
2023-06-12T13:15:32.432Z,101000.15
2023-06-12T13:17:25.490Z,101004.98
2023-06-12T13:19:21.160Z,101002.41
2023-06-12T13:21:16.770Z,100995.79
2023-06-12T13:23:14.173Z,100995.43
2023-06-12T13:25:10.757Z,100998.34
2023-06-12T13:27:08.410Z,100993.94
2023-06-12T13:29:02.793Z,100998.60
2023-06-12T13:30:55.879Z,100998.41
2023-06-12T13:32:49.341Z,100997.86
2023-06-12T13:34:42.877Z,100996.70
2023-06-12T13:36:35.918Z,100995.72
2023-06-12T13:38:29.774Z,100987.61
2023-06-12T13:40:24.758Z,100985.83
2023-06-12T13:42:18.349Z,100979.75
2023-06-12T13:44:12.461Z,100983.54
2023-06-12T13:47:59.789Z,100979.70
2023-06-12T13:49:53.940Z,100981.80
2023-06-12T13:51:46.998Z,100981.59
2023-06-12T13:53:41.066Z,100978.35
2023-06-12T13:55:36.977Z,100975.95
2023-06-12T13:57:30.235Z,100980.95
2023-06-12T13:59:23.283Z,100976.60
2023-06-12T14:01:16.373Z,100978.17
2023-06-12T14:03:09.832Z,100982.00
2023-06-12T14:05:03.603Z,100974.27
2023-06-12T14:06:59.817Z,100969.40
2023-06-12T14:08:55.665Z,100978.48
2023-06-12T14:10:50.021Z,100973.99
2023-06-12T14:12:44.733Z,100966.19
2023-06-12T14:14:38.682Z,100965.28
2023-06-12T14:16:32.066Z,100966.21
2023-06-12T14:18:25.176Z,100966.85
2023-06-12T14:20:18.312Z,100968.02
2023-06-12T14:22:11.503Z,100960.39
2023-06-12T14:24:05.648Z,100966.98
2023-06-12T14:25:58.900Z,100964.96
2023-06-12T14:27:51.948Z,100965.03
2023-06-12T14:29:44.996Z,100962.30
2023-06-12T14:31:38.094Z,100961.91
2023-06-12T14:33:31.530Z,100956.42
2023-06-12T14:35:24.760Z,100963.34
2023-06-12T14:37:21.200Z,100960.80
2023-06-12T14:39:14.343Z,100959.05
2023-06-12T14:41:07.708Z,100960.06
2023-06-12T14:43:00.686Z,100952.52
2023-06-12T14:44:53.727Z,100951.27
2023-06-12T14:46:46.648Z,100946.73
2023-06-12T14:48:39.701Z,100944.63
2023-06-12T14:50:33.567Z,100950.41
2023-06-12T14:52:32.490Z,100951.15
2023-06-12T14:54:26.709Z,100949.61
2023-06-12T14:56:20.507Z,100950.02
2023-06-12T14:58:14.119Z,100946.80
2023-06-12T15:00:09.197Z,100946.15
2023-06-12T15:02:02.324Z,100945.55
2023-06-12T15:03:55.639Z,100936.58
2023-06-12T15:05:48.854Z,100934.63
2023-06-12T15:07:42.086Z,100933.88
2023-06-12T15:09:35.137Z,100932.85
2023-06-12T15:11:28.167Z,100930.77
2023-06-12T15:13:24.824Z,100926.05
2023-06-12T15:15:17.775Z,100924.06
2023-06-12T15:17:15.224Z,100921.67
2023-06-12T15:19:08.278Z,100927.71
2023-06-12T15:21:01.430Z,100928.19
2023-06-12T15:22:54.477Z,100926.29
2023-06-12T15:24:47.629Z,100922.03
2023-06-12T15:26:40.677Z,100923.11
2023-06-12T15:28:33.879Z,100924.84
2023-06-12T15:30:29.237Z,100921.82
2023-06-12T15:32:22.544Z,100923.16
2023-06-12T15:34:16.071Z,100919.05
2023-06-12T15:36:10.124Z,100917.14
2023-06-12T15:38:42.086Z,100918.77
2023-06-12T15:40:35.222Z,100913.87
2023-06-12T15:42:28.314Z,100913.64
2023-06-12T15:44:21.474Z,100913.20
2023-06-12T15:46:14.656Z,100908.70
2023-06-12T15:48:07.887Z,100910.42
2023-06-12T15:50:00.937Z,100907.74
2023-06-12T15:51:54.060Z,100906.09
2023-06-12T15:53:47.312Z,100909.31
2023-06-12T15:55:47.954Z,100909.73
2023-06-12T15:57:41.674Z,100909.27
2023-06-12T15:59:35.990Z,100907.64
2023-06-12T16:01:29.202Z,100904.76
2023-06-12T16:03:22.420Z,100903.06
2023-06-12T16:05:15.915Z,100901.82
2023-06-12T16:07:09.240Z,100901.61
2023-06-12T16:09:02.710Z,100901.96
2023-06-12T16:11:06.640Z,100904.61
2023-06-12T16:13:34.824Z,100899.86
2023-06-12T16:16:00.269Z,100900.84
2023-06-12T16:17:53.459Z,100898.52
2023-06-12T16:19:46.900Z,100896.23
2023-06-12T16:21:40.237Z,100893.71
2023-06-12T16:23:38.805Z,100892.91
2023-06-12T16:25:32.996Z,100894.77
2023-06-12T16:27:26.046Z,100893.83
2023-06-12T16:29:20.138Z,100892.39
2023-06-12T16:31:13.461Z,100895.41
2023-06-12T16:33:07.375Z,100892.49
2023-06-12T16:35:01.156Z,100891.64
2023-06-12T16:36:55.730Z,100891.20
2023-06-12T16:38:48.896Z,100890.48
2023-06-12T16:40:42.003Z,100891.45
2023-06-12T16:42:35.933Z,100888.09
2023-06-12T16:44:30.181Z,100889.62
2023-06-12T16:46:41.022Z,100891.05
2023-06-12T16:48:34.389Z,100889.80
2023-06-12T16:50:27.442Z,100888.05
2023-06-12T16:52:22.541Z,100887.92
2023-06-12T16:54:15.830Z,100885.41
2023-06-12T16:56:09.064Z,100881.76
2023-06-12T16:58:05.853Z,100885.77
2023-06-12T16:59:59.444Z,100885.12
2023-06-12T17:01:52.534Z,100878.17
2023-06-12T17:03:46.167Z,100883.31
2023-06-12T17:05:39.519Z,100879.05
2023-06-12T17:07:32.782Z,100879.37
2023-06-12T17:09:32.703Z,100883.02
2023-06-12T17:11:26.045Z,100883.33
2023-06-12T17:13:19.314Z,100883.05
2023-06-12T17:15:13.021Z,100880.19
2023-06-12T17:17:06.457Z,100879.44
2023-06-12T17:18:59.480Z,100879.80
2023-06-12T17:20:52.625Z,100882.36
2023-06-12T17:22:45.843Z,100880.64
2023-06-12T17:24:40.263Z,100877.95
2023-06-12T17:26:33.432Z,100876.88
2023-06-12T17:28:26.373Z,100875.42
2023-06-12T17:30:19.349Z,100876.67
2023-06-12T17:32:12.622Z,100875.33
2023-06-12T17:34:06.029Z,100873.56
2023-06-12T17:35:59.591Z,100872.17
2023-06-12T17:37:52.768Z,100875.30
2023-06-12T17:39:45.970Z,100875.64
2023-06-12T17:41:40.279Z,100873.02
2023-06-12T17:43:33.433Z,100874.14
2023-06-12T17:45:26.493Z,100869.05
2023-06-12T17:47:19.746Z,100873.12
2023-06-12T17:49:12.822Z,100874.58
2023-06-12T17:51:06.263Z,100873.83
2023-06-12T17:52:59.413Z,100876.18
2023-06-12T17:54:52.458Z,100877.51
2023-06-12T17:56:47.460Z,100876.13
2023-06-12T17:58:42.073Z,100874.75
2023-06-12T18:00:35.205Z,100873.95
2023-06-12T18:02:29.231Z,100870.64
2023-06-12T18:04:22.533Z,100871.66
2023-06-12T18:06:15.691Z,100869.36
2023-06-12T18:08:08.832Z,100870.02
2023-06-12T18:10:04.213Z,100874.04
2023-06-12T18:11:57.384Z,100869.94
2023-06-12T18:13:53.518Z,100867.84
2023-06-12T18:15:47.287Z,100867.75
2023-06-12T18:17:40.483Z,100867.13
2023-06-12T18:19:33.910Z,100870.09
2023-06-12T18:21:27.454Z,100866.23
2023-06-12T18:23:21.012Z,100863.71
2023-06-12T18:25:14.282Z,100861.67
2023-06-12T18:27:08.548Z,100858.48
2023-06-12T18:29:02.419Z,100860.33
2023-06-12T18:30:55.877Z,100856.63
2023-06-12T18:32:49.050Z,100858.64
2023-06-12T18:34:47.527Z,100859.09
2023-06-12T18:36:40.661Z,100861.39
2023-06-12T18:38:34.020Z,100862.13
2023-06-12T18:40:27.487Z,100860.04
2023-06-12T18:42:21.147Z,100861.83
2023-06-12T18:44:16.390Z,100861.41
2023-06-12T18:46:09.526Z,100864.60
2023-06-12T18:48:02.502Z,100862.52
2023-06-12T18:49:55.699Z,100861.69
2023-06-12T18:51:49.060Z,100864.21
2023-06-12T18:53:43.026Z,100864.67
2023-06-12T18:55:38.181Z,100866.23
2023-06-12T18:57:31.488Z,100867.18
2023-06-12T18:59:26.884Z,100867.27
2023-06-12T19:01:20.198Z,100869.48
2023-06-12T19:03:14.291Z,100873.65
2023-06-12T19:05:10.101Z,100872.66
2023-06-12T19:07:08.687Z,100871.46
2023-06-12T19:09:01.823Z,100871.23
2023-06-12T19:11:04.051Z,100873.41
2023-06-12T19:13:11.325Z,100869.76
2023-06-12T19:15:05.475Z,100870.98
2023-06-12T19:16:59.438Z,100869.94
2023-06-12T19:18:53.552Z,100870.61
2023-06-12T19:20:46.595Z,100876.87
2023-06-12T19:22:39.752Z,100875.76
2023-06-12T19:24:33.163Z,100875.92
2023-06-12T19:26:26.667Z,100879.88
2023-06-12T19:28:19.818Z,100881.86
2023-06-12T19:30:15.020Z,100882.64
2023-06-12T19:32:08.670Z,100883.30
2023-06-12T19:34:03.179Z,100883.95
2023-06-12T19:35:56.428Z,100884.23
2023-06-12T19:37:49.479Z,100884.16
2023-06-12T19:39:43.351Z,100885.98
2023-06-12T19:41:36.507Z,100889.40
2023-06-12T19:43:30.684Z,100891.38
2023-06-12T19:45:25.978Z,100891.51
2023-06-12T19:47:19.242Z,100894.59
2023-06-12T19:49:12.396Z,100894.84
2023-06-12T19:51:06.272Z,100895.42
2023-06-12T19:53:01.180Z,100898.26
2023-06-12T19:54:54.419Z,100893.65
2023-06-12T19:56:48.388Z,100898.05
2023-06-12T19:58:41.332Z,100896.27
2023-06-12T20:00:35.334Z,100894.52
2023-06-12T20:02:29.004Z,100897.37
2023-06-12T20:04:25.192Z,100898.34
2023-06-12T20:06:18.405Z,100899.67
2023-06-12T20:08:11.844Z,100901.92
2023-06-12T20:10:05.708Z,100897.91
2023-06-12T20:11:58.934Z,100894.96
2023-06-12T20:13:55.051Z,100890.52
2023-06-12T20:15:48.286Z,100892.09
2023-06-12T20:17:41.554Z,100890.20
2023-06-12T20:19:35.744Z,100890.95
2023-06-12T20:21:28.796Z,100889.89
2023-06-12T20:23:22.234Z,100889.81
2023-06-12T20:25:15.928Z,100889.91
2023-06-12T20:27:10.237Z,100888.95
2023-06-12T20:29:03.347Z,100888.93
2023-06-12T20:30:56.302Z,100890.02
2023-06-12T20:32:49.543Z,100887.95
2023-06-12T20:34:43.316Z,100890.13
2023-06-12T20:36:38.650Z,100888.89
2023-06-12T20:38:31.850Z,100890.70
2023-06-12T20:40:26.615Z,100892.30
2023-06-12T20:42:20.854Z,100896.54
2023-06-12T20:44:14.304Z,100891.92
2023-06-12T20:46:07.570Z,100892.45
2023-06-12T20:48:01.184Z,100889.55
2023-06-12T20:49:54.523Z,100888.35
2023-06-12T20:51:47.536Z,100889.89
2023-06-12T20:53:40.733Z,100889.70
2023-06-12T20:55:33.749Z,100886.59
2023-06-12T20:57:27.033Z,100885.20
2023-06-12T20:59:20.245Z,100882.58
2023-06-12T21:01:13.625Z,100883.29
2023-06-12T21:03:07.039Z,100883.80
2023-06-12T21:05:00.328Z,100882.41
2023-06-12T21:06:54.398Z,100878.10
2023-06-12T21:08:58.745Z,100878.69
2023-06-12T21:10:52.379Z,100875.32
2023-06-12T21:12:45.325Z,100875.86
2023-06-12T21:14:40.536Z,100869.21
2023-06-12T21:16:36.920Z,100869.95
2023-06-12T21:18:30.036Z,100871.94
2023-06-12T21:20:24.339Z,100871.04
2023-06-12T21:22:44.075Z,100866.27
2023-06-12T21:24:37.778Z,100868.19
2023-06-12T21:26:31.704Z,100866.90
2023-06-12T21:28:26.672Z,100865.42
2023-06-12T21:30:20.670Z,100865.80
2023-06-12T21:32:13.955Z,100865.87
2023-06-12T21:34:08.211Z,100866.92
2023-06-12T21:36:01.254Z,100865.10
2023-06-12T21:37:54.513Z,100863.52
2023-06-12T21:39:47.669Z,100861.86
2023-06-12T21:41:42.493Z,100863.73
2023-06-12T21:43:36.403Z,100868.13
2023-06-12T21:45:31.526Z,100866.77
2023-06-12T21:47:24.910Z,100867.90
2023-06-12T21:49:17.942Z,100865.08
2023-06-12T21:51:11.193Z,100863.39
2023-06-12T21:53:04.620Z,100861.20
2023-06-12T21:54:57.807Z,100865.16
2023-06-12T21:56:51.878Z,100864.05
2023-06-12T21:58:45.037Z,100866.13
2023-06-12T22:00:38.077Z,100862.64
2023-06-12T22:02:31.083Z,100863.00
2023-06-12T22:04:24.463Z,100864.56
2023-06-12T22:06:17.749Z,100858.55
2023-06-12T22:08:10.998Z,100857.83
2023-06-12T22:10:05.282Z,100854.20
2023-06-12T22:11:58.326Z,100852.77
2023-06-12T22:13:51.377Z,100854.36
2023-06-12T22:15:44.531Z,100857.64
2023-06-12T22:17:38.839Z,100852.86
2023-06-12T22:19:32.150Z,100857.48
2023-06-12T22:21:25.421Z,100854.63
2023-06-12T22:23:18.684Z,100853.71
2023-06-12T22:25:11.961Z,100851.05
2023-06-12T22:27:06.725Z,100849.40
2023-06-12T22:28:59.778Z,100845.84
2023-06-12T22:31:02.562Z,100850.05
2023-06-12T22:32:57.297Z,100843.48
2023-06-12T22:34:51.828Z,100843.11
2023-06-12T22:36:44.877Z,100842.09
2023-06-12T22:38:37.832Z,100838.42